sensor_id;sensor_type;location;lat;lon;timestamp;P1;durP1;ratioP1;P2;durP2;ratioP2
59824;SDS011;45703;50.898;6.054;2023-04-10T00:01:31;7.63;;;3.72;;
59824;SDS011;45703;50.898;6.054;2023-04-10T00:03:59;8.18;;;4.13;;
59824;SDS011;45703;50.898;6.054;2023-04-10T00:06:25;8.52;;;3.83;;
59824;SDS011;45703;50.898;6.054;2023-04-10T00:08:52;8.27;;;3.97;;
59824;SDS011;45703;50.898;6.054;2023-04-10T00:11:17;8.15;;;3.75;;
59824;SDS011;45703;50.898;6.054;2023-04-10T00:13:43;8.35;;;4.07;;
59824;SDS011;45703;50.898;6.054;2023-04-10T00:16:09;8.75;;;3.85;;
59824;SDS011;45703;50.898;6.054;2023-04-10T00:18:34;8.57;;;4.07;;
59824;SDS011;45703;50.898;6.054;2023-04-10T00:21:01;7.32;;;3.40;;
59824;SDS011;45703;50.898;6.054;2023-04-10T00:23:27;8.15;;;3.85;;
59824;SDS011;45703;50.898;6.054;2023-04-10T00:25:55;8.07;;;3.85;;
59824;SDS011;45703;50.898;6.054;2023-04-10T00:28:21;10.35;;;4.28;;
59824;SDS011;45703;50.898;6.054;2023-04-10T00:30:47;7.85;;;3.70;;
59824;SDS011;45703;50.898;6.054;2023-04-10T00:33:12;7.28;;;3.65;;
59824;SDS011;45703;50.898;6.054;2023-04-10T00:35:38;7.40;;;3.38;;
59824;SDS011;45703;50.898;6.054;2023-04-10T00:38:03;8.90;;;4.30;;
59824;SDS011;45703;50.898;6.054;2023-04-10T00:40:28;7.13;;;3.55;;
59824;SDS011;45703;50.898;6.054;2023-04-10T00:42:54;8.10;;;3.50;;
59824;SDS011;45703;50.898;6.054;2023-04-10T00:45:20;7.80;;;3.60;;
59824;SDS011;45703;50.898;6.054;2023-04-10T00:47:45;7.65;;;3.58;;
59824;SDS011;45703;50.898;6.054;2023-04-10T00:50:11;7.45;;;3.42;;
59824;SDS011;45703;50.898;6.054;2023-04-10T00:52:36;7.53;;;3.47;;
59824;SDS011;45703;50.898;6.054;2023-04-10T00:55:02;8.70;;;4.18;;
59824;SDS011;45703;50.898;6.054;2023-04-10T00:57:28;7.88;;;3.75;;
59824;SDS011;45703;50.898;6.054;2023-04-10T00:59:54;7.75;;;3.50;;
59824;SDS011;45703;50.898;6.054;2023-04-10T01:02:20;8.07;;;3.90;;
59824;SDS011;45703;50.898;6.054;2023-04-10T01:04:45;7.60;;;3.45;;
59824;SDS011;45703;50.898;6.054;2023-04-10T01:07:26;8.25;;;3.83;;
59824;SDS011;45703;50.898;6.054;2023-04-10T01:12:37;7.90;;;3.80;;
59824;SDS011;45703;50.898;6.054;2023-04-10T01:15:19;7.95;;;3.85;;
59824;SDS011;45703;50.898;6.054;2023-04-10T01:20:37;7.73;;;3.90;;
59824;SDS011;45703;50.898;6.054;2023-04-10T01:23:11;8.40;;;4.00;;
59824;SDS011;45703;50.898;6.054;2023-04-10T01:26:03;8.05;;;3.72;;
59824;SDS011;45703;50.898;6.054;2023-04-10T01:31:17;7.75;;;3.70;;
59824;SDS011;45703;50.898;6.054;2023-04-10T01:33:49;7.88;;;3.42;;
59824;SDS011;45703;50.898;6.054;2023-04-10T01:36:20;8.07;;;3.78;;
59824;SDS011;45703;50.898;6.054;2023-04-10T01:38:50;7.38;;;3.60;;
59824;SDS011;45703;50.898;6.054;2023-04-10T01:41:18;7.15;;;3.17;;
59824;SDS011;45703;50.898;6.054;2023-04-10T01:43:46;7.70;;;3.40;;
59824;SDS011;45703;50.898;6.054;2023-04-10T01:46:15;8.07;;;4.03;;
59824;SDS011;45703;50.898;6.054;2023-04-10T01:48:43;7.32;;;3.50;;
59824;SDS011;45703;50.898;6.054;2023-04-10T01:51:10;8.77;;;4.18;;
59824;SDS011;45703;50.898;6.054;2023-04-10T01:53:36;7.90;;;3.80;;
59824;SDS011;45703;50.898;6.054;2023-04-10T01:56:03;7.18;;;3.42;;
59824;SDS011;45703;50.898;6.054;2023-04-10T01:58:29;7.47;;;3.67;;
59824;SDS011;45703;50.898;6.054;2023-04-10T02:00:55;8.23;;;3.92;;
59824;SDS011;45703;50.898;6.054;2023-04-10T02:03:20;7.55;;;3.35;;
59824;SDS011;45703;50.898;6.054;2023-04-10T02:08:25;7.75;;;3.28;;
59824;SDS011;45703;50.898;6.054;2023-04-10T02:11:10;7.35;;;3.10;;
59824;SDS011;45703;50.898;6.054;2023-04-10T02:13:39;8.18;;;4.00;;
59824;SDS011;45703;50.898;6.054;2023-04-10T02:16:06;9.02;;;3.80;;
59824;SDS011;45703;50.898;6.054;2023-04-10T02:18:33;7.88;;;3.70;;
59824;SDS011;45703;50.898;6.054;2023-04-10T02:21:01;7.30;;;3.70;;
59824;SDS011;45703;50.898;6.054;2023-04-10T02:23:27;7.65;;;3.67;;
59824;SDS011;45703;50.898;6.054;2023-04-10T02:25:53;7.90;;;3.88;;
59824;SDS011;45703;50.898;6.054;2023-04-10T02:28:21;7.82;;;3.50;;
59824;SDS011;45703;50.898;6.054;2023-04-10T02:30:46;7.97;;;3.92;;
59824;SDS011;45703;50.898;6.054;2023-04-10T02:33:11;8.50;;;3.95;;
59824;SDS011;45703;50.898;6.054;2023-04-10T02:35:37;7.45;;;3.53;;
59824;SDS011;45703;50.898;6.054;2023-04-10T02:38:02;7.78;;;3.85;;
59824;SDS011;45703;50.898;6.054;2023-04-10T02:40:28;7.93;;;3.70;;
59824;SDS011;45703;50.898;6.054;2023-04-10T02:42:53;7.90;;;3.72;;
59824;SDS011;45703;50.898;6.054;2023-04-10T02:45:19;7.20;;;3.33;;
59824;SDS011;45703;50.898;6.054;2023-04-10T02:47:44;7.47;;;3.53;;
59824;SDS011;45703;50.898;6.054;2023-04-10T02:50:09;8.70;;;3.97;;
59824;SDS011;45703;50.898;6.054;2023-04-10T02:52:36;8.10;;;3.67;;
59824;SDS011;45703;50.898;6.054;2023-04-10T02:55:01;7.72;;;3.58;;
59824;SDS011;45703;50.898;6.054;2023-04-10T02:57:27;8.35;;;3.78;;
59824;SDS011;45703;50.898;6.054;2023-04-10T02:59:52;8.80;;;4.30;;
59824;SDS011;45703;50.898;6.054;2023-04-10T03:02:18;7.30;;;3.33;;
59824;SDS011;45703;50.898;6.054;2023-04-10T03:04:44;8.60;;;4.13;;
59824;SDS011;45703;50.898;6.054;2023-04-10T03:07:09;8.38;;;4.18;;
59824;SDS011;45703;50.898;6.054;2023-04-10T03:09:35;8.35;;;4.35;;
59824;SDS011;45703;50.898;6.054;2023-04-10T03:12:00;7.75;;;4.00;;
59824;SDS011;45703;50.898;6.054;2023-04-10T03:14:26;8.35;;;3.85;;
59824;SDS011;45703;50.898;6.054;2023-04-10T03:16:52;8.52;;;4.15;;
59824;SDS011;45703;50.898;6.054;2023-04-10T03:19:17;8.50;;;4.07;;
59824;SDS011;45703;50.898;6.054;2023-04-10T03:21:43;7.47;;;3.67;;
59824;SDS011;45703;50.898;6.054;2023-04-10T03:24:10;8.90;;;4.20;;
59824;SDS011;45703;50.898;6.054;2023-04-10T03:26:35;8.00;;;3.90;;
59824;SDS011;45703;50.898;6.054;2023-04-10T03:29:01;8.23;;;3.78;;
59824;SDS011;45703;50.898;6.054;2023-04-10T03:31:26;10.68;;;3.97;;
59824;SDS011;45703;50.898;6.054;2023-04-10T03:33:51;8.00;;;4.20;;
59824;SDS011;45703;50.898;6.054;2023-04-10T03:36:17;8.48;;;4.25;;
59824;SDS011;45703;50.898;6.054;2023-04-10T03:38:42;8.43;;;4.07;;
59824;SDS011;45703;50.898;6.054;2023-04-10T03:41:08;8.82;;;4.05;;
59824;SDS011;45703;50.898;6.054;2023-04-10T03:43:34;8.93;;;4.28;;
59824;SDS011;45703;50.898;6.054;2023-04-10T03:45:59;7.93;;;4.05;;
59824;SDS011;45703;50.898;6.054;2023-04-10T03:48:25;7.82;;;3.90;;
59824;SDS011;45703;50.898;6.054;2023-04-10T03:50:52;7.97;;;3.85;;
59824;SDS011;45703;50.898;6.054;2023-04-10T03:53:20;8.00;;;3.90;;
59824;SDS011;45703;50.898;6.054;2023-04-10T03:55:46;8.90;;;3.78;;
59824;SDS011;45703;50.898;6.054;2023-04-10T03:58:11;8.13;;;4.05;;
59824;SDS011;45703;50.898;6.054;2023-04-10T04:00:37;8.77;;;4.68;;
59824;SDS011;45703;50.898;6.054;2023-04-10T04:03:02;9.60;;;4.43;;
59824;SDS011;45703;50.898;6.054;2023-04-10T04:05:29;8.43;;;3.90;;
59824;SDS011;45703;50.898;6.054;2023-04-10T04:07:55;9.27;;;4.63;;
59824;SDS011;45703;50.898;6.054;2023-04-10T04:10:20;8.32;;;4.03;;
59824;SDS011;45703;50.898;6.054;2023-04-10T04:12:46;8.35;;;3.78;;
59824;SDS011;45703;50.898;6.054;2023-04-10T04:15:11;8.55;;;4.40;;
59824;SDS011;45703;50.898;6.054;2023-04-10T04:17:37;9.18;;;4.38;;
59824;SDS011;45703;50.898;6.054;2023-04-10T04:20:03;8.50;;;4.25;;
59824;SDS011;45703;50.898;6.054;2023-04-10T04:22:29;8.75;;;4.75;;
59824;SDS011;45703;50.898;6.054;2023-04-10T04:24:54;9.00;;;4.25;;
59824;SDS011;45703;50.898;6.054;2023-04-10T04:27:20;8.35;;;4.30;;
59824;SDS011;45703;50.898;6.054;2023-04-10T04:29:47;8.55;;;4.47;;
59824;SDS011;45703;50.898;6.054;2023-04-10T04:32:12;9.82;;;4.85;;
59824;SDS011;45703;50.898;6.054;2023-04-10T04:34:38;9.45;;;4.50;;
59824;SDS011;45703;50.898;6.054;2023-04-10T04:37:03;9.55;;;4.65;;
59824;SDS011;45703;50.898;6.054;2023-04-10T04:39:29;8.65;;;4.30;;
59824;SDS011;45703;50.898;6.054;2023-04-10T04:41:55;9.18;;;4.50;;
59824;SDS011;45703;50.898;6.054;2023-04-10T04:44:20;8.18;;;3.95;;
59824;SDS011;45703;50.898;6.054;2023-04-10T04:46:46;8.52;;;4.13;;
59824;SDS011;45703;50.898;6.054;2023-04-10T04:49:11;8.90;;;4.22;;
59824;SDS011;45703;50.898;6.054;2023-04-10T04:51:37;8.98;;;4.35;;
59824;SDS011;45703;50.898;6.054;2023-04-10T04:54:04;9.50;;;4.22;;
59824;SDS011;45703;50.898;6.054;2023-04-10T04:56:30;9.48;;;4.60;;
59824;SDS011;45703;50.898;6.054;2023-04-10T04:58:55;9.18;;;4.40;;
59824;SDS011;45703;50.898;6.054;2023-04-10T05:01:21;9.30;;;4.50;;
59824;SDS011;45703;50.898;6.054;2023-04-10T05:03:46;10.60;;;5.20;;
59824;SDS011;45703;50.898;6.054;2023-04-10T05:06:11;9.75;;;4.78;;
59824;SDS011;45703;50.898;6.054;2023-04-10T05:08:38;10.75;;;4.75;;
59824;SDS011;45703;50.898;6.054;2023-04-10T05:11:03;9.20;;;4.53;;
59824;SDS011;45703;50.898;6.054;2023-04-10T05:13:29;9.23;;;4.88;;
59824;SDS011;45703;50.898;6.054;2023-04-10T05:15:55;9.63;;;4.53;;
59824;SDS011;45703;50.898;6.054;2023-04-10T05:18:20;9.13;;;4.75;;
59824;SDS011;45703;50.898;6.054;2023-04-10T05:20:47;9.52;;;4.72;;
59824;SDS011;45703;50.898;6.054;2023-04-10T05:23:13;9.38;;;4.68;;
59824;SDS011;45703;50.898;6.054;2023-04-10T05:25:39;10.05;;;4.90;;
59824;SDS011;45703;50.898;6.054;2023-04-10T05:28:05;10.77;;;5.30;;
59824;SDS011;45703;50.898;6.054;2023-04-10T05:30:30;10.38;;;5.15;;
59824;SDS011;45703;50.898;6.054;2023-04-10T05:32:56;8.50;;;4.45;;
59824;SDS011;45703;50.898;6.054;2023-04-10T05:35:21;9.20;;;4.28;;
59824;SDS011;45703;50.898;6.054;2023-04-10T05:37:47;9.95;;;5.18;;
59824;SDS011;45703;50.898;6.054;2023-04-10T05:40:12;9.82;;;5.20;;
59824;SDS011;45703;50.898;6.054;2023-04-10T05:42:37;9.68;;;4.68;;
59824;SDS011;45703;50.898;6.054;2023-04-10T05:45:03;11.02;;;5.55;;
59824;SDS011;45703;50.898;6.054;2023-04-10T05:47:29;11.52;;;4.88;;
59824;SDS011;45703;50.898;6.054;2023-04-10T05:49:54;10.70;;;5.05;;
59824;SDS011;45703;50.898;6.054;2023-04-10T05:52:20;10.38;;;5.38;;
59824;SDS011;45703;50.898;6.054;2023-04-10T05:54:45;9.85;;;4.75;;
59824;SDS011;45703;50.898;6.054;2023-04-10T05:57:11;10.10;;;5.25;;
59824;SDS011;45703;50.898;6.054;2023-04-10T05:59:36;9.27;;;4.95;;
59824;SDS011;45703;50.898;6.054;2023-04-10T06:02:02;10.15;;;5.32;;
59824;SDS011;45703;50.898;6.054;2023-04-10T06:04:27;10.63;;;5.00;;
59824;SDS011;45703;50.898;6.054;2023-04-10T06:06:52;8.88;;;4.88;;
59824;SDS011;45703;50.898;6.054;2023-04-10T06:09:18;9.25;;;4.65;;
59824;SDS011;45703;50.898;6.054;2023-04-10T06:11:43;8.88;;;4.47;;
59824;SDS011;45703;50.898;6.054;2023-04-10T06:14:09;8.60;;;4.50;;
59824;SDS011;45703;50.898;6.054;2023-04-10T06:16:35;8.75;;;4.15;;
59824;SDS011;45703;50.898;6.054;2023-04-10T06:19:00;10.38;;;4.85;;
59824;SDS011;45703;50.898;6.054;2023-04-10T06:21:25;9.68;;;4.90;;
59824;SDS011;45703;50.898;6.054;2023-04-10T06:23:51;9.85;;;4.45;;
59824;SDS011;45703;50.898;6.054;2023-04-10T06:26:17;8.93;;;4.32;;
59824;SDS011;45703;50.898;6.054;2023-04-10T06:32:26;8.75;;;3.92;;
59824;SDS011;45703;50.898;6.054;2023-04-10T06:34:51;8.93;;;4.50;;
59824;SDS011;45703;50.898;6.054;2023-04-10T06:37:17;8.70;;;4.05;;
59824;SDS011;45703;50.898;6.054;2023-04-10T06:39:42;9.23;;;4.57;;
59824;SDS011;45703;50.898;6.054;2023-04-10T06:42:08;9.02;;;4.20;;
59824;SDS011;45703;50.898;6.054;2023-04-10T06:44:33;8.88;;;4.20;;
59824;SDS011;45703;50.898;6.054;2023-04-10T06:46:59;8.93;;;4.35;;
59824;SDS011;45703;50.898;6.054;2023-04-10T06:49:24;8.60;;;4.35;;
59824;SDS011;45703;50.898;6.054;2023-04-10T06:51:50;7.95;;;3.60;;
59824;SDS011;45703;50.898;6.054;2023-04-10T06:54:15;8.27;;;4.32;;
59824;SDS011;45703;50.898;6.054;2023-04-10T06:56:41;9.48;;;4.30;;
59824;SDS011;45703;50.898;6.054;2023-04-10T06:59:06;8.30;;;3.80;;
59824;SDS011;45703;50.898;6.054;2023-04-10T07:01:32;8.25;;;3.78;;
59824;SDS011;45703;50.898;6.054;2023-04-10T07:03:57;8.43;;;4.00;;
59824;SDS011;45703;50.898;6.054;2023-04-10T07:06:22;8.05;;;4.00;;
59824;SDS011;45703;50.898;6.054;2023-04-10T07:08:48;8.55;;;4.50;;
59824;SDS011;45703;50.898;6.054;2023-04-10T07:11:14;8.75;;;3.90;;
59824;SDS011;45703;50.898;6.054;2023-04-10T07:13:39;8.70;;;4.03;;
59824;SDS011;45703;50.898;6.054;2023-04-10T07:16:05;8.77;;;4.00;;
59824;SDS011;45703;50.898;6.054;2023-04-10T07:18:32;7.88;;;3.88;;
59824;SDS011;45703;50.898;6.054;2023-04-10T07:20:59;8.30;;;4.00;;
59824;SDS011;45703;50.898;6.054;2023-04-10T07:23:24;7.47;;;3.60;;
59824;SDS011;45703;50.898;6.054;2023-04-10T07:25:50;8.48;;;4.03;;
59824;SDS011;45703;50.898;6.054;2023-04-10T07:28:16;7.68;;;3.53;;
59824;SDS011;45703;50.898;6.054;2023-04-10T07:30:41;7.80;;;4.03;;
59824;SDS011;45703;50.898;6.054;2023-04-10T07:33:06;7.72;;;3.92;;
59824;SDS011;45703;50.898;6.054;2023-04-10T07:35:32;7.55;;;3.75;;
59824;SDS011;45703;50.898;6.054;2023-04-10T07:37:57;7.72;;;3.70;;
59824;SDS011;45703;50.898;6.054;2023-04-10T07:40:23;7.65;;;3.50;;
59824;SDS011;45703;50.898;6.054;2023-04-10T07:42:49;8.88;;;3.85;;
59824;SDS011;45703;50.898;6.054;2023-04-10T07:45:14;8.10;;;3.80;;
59824;SDS011;45703;50.898;6.054;2023-04-10T07:47:40;8.30;;;3.65;;
59824;SDS011;45703;50.898;6.054;2023-04-10T07:50:05;7.47;;;3.70;;
59824;SDS011;45703;50.898;6.054;2023-04-10T07:52:31;8.20;;;4.00;;
59824;SDS011;45703;50.898;6.054;2023-04-10T07:54:57;8.27;;;3.45;;
59824;SDS011;45703;50.898;6.054;2023-04-10T07:57:27;7.45;;;3.42;;
59824;SDS011;45703;50.898;6.054;2023-04-10T07:59:52;7.18;;;3.47;;
59824;SDS011;45703;50.898;6.054;2023-04-10T08:02:18;7.25;;;3.50;;
59824;SDS011;45703;50.898;6.054;2023-04-10T08:04:43;8.10;;;3.67;;
59824;SDS011;45703;50.898;6.054;2023-04-10T08:07:08;7.72;;;3.78;;
59824;SDS011;45703;50.898;6.054;2023-04-10T08:09:34;8.18;;;4.00;;
59824;SDS011;45703;50.898;6.054;2023-04-10T08:11:59;7.15;;;3.20;;
59824;SDS011;45703;50.898;6.054;2023-04-10T08:14:25;7.63;;;3.55;;
59824;SDS011;45703;50.898;6.054;2023-04-10T08:16:50;7.32;;;3.22;;
59824;SDS011;45703;50.898;6.054;2023-04-10T08:19:16;7.47;;;3.50;;
59824;SDS011;45703;50.898;6.054;2023-04-10T08:21:41;7.57;;;3.40;;
59824;SDS011;45703;50.898;6.054;2023-04-10T08:24:06;7.50;;;3.70;;
59824;SDS011;45703;50.898;6.054;2023-04-10T08:26:32;7.70;;;3.65;;
59824;SDS011;45703;50.898;6.054;2023-04-10T08:28:58;8.60;;;3.78;;
59824;SDS011;45703;50.898;6.054;2023-04-10T08:31:25;7.15;;;3.40;;
59824;SDS011;45703;50.898;6.054;2023-04-10T08:33:51;7.28;;;3.42;;
59824;SDS011;45703;50.898;6.054;2023-04-10T08:36:17;7.65;;;3.40;;
59824;SDS011;45703;50.898;6.054;2023-04-10T08:38:43;8.13;;;3.50;;
59824;SDS011;45703;50.898;6.054;2023-04-10T08:41:13;6.70;;;3.30;;
59824;SDS011;45703;50.898;6.054;2023-04-10T08:43:40;6.85;;;3.22;;
59824;SDS011;45703;50.898;6.054;2023-04-10T08:46:06;7.45;;;3.75;;
59824;SDS011;45703;50.898;6.054;2023-04-10T08:48:37;8.07;;;3.83;;
59824;SDS011;45703;50.898;6.054;2023-04-10T08:51:12;6.90;;;3.13;;
59824;SDS011;45703;50.898;6.054;2023-04-10T08:53:42;7.38;;;3.63;;
59824;SDS011;45703;50.898;6.054;2023-04-10T08:56:11;7.50;;;3.60;;
59824;SDS011;45703;50.898;6.054;2023-04-10T08:58:39;6.95;;;3.17;;
59824;SDS011;45703;50.898;6.054;2023-04-10T09:01:06;8.43;;;4.00;;
59824;SDS011;45703;50.898;6.054;2023-04-10T09:03:32;7.32;;;3.55;;
59824;SDS011;45703;50.898;6.054;2023-04-10T09:06:00;7.32;;;3.42;;
59824;SDS011;45703;50.898;6.054;2023-04-10T09:08:28;7.18;;;3.40;;
59824;SDS011;45703;50.898;6.054;2023-04-10T09:10:53;7.00;;;2.95;;
59824;SDS011;45703;50.898;6.054;2023-04-10T09:13:38;7.15;;;3.35;;
59824;SDS011;45703;50.898;6.054;2023-04-10T09:16:06;7.72;;;3.60;;
59824;SDS011;45703;50.898;6.054;2023-04-10T09:18:42;6.80;;;3.20;;
59824;SDS011;45703;50.898;6.054;2023-04-10T09:21:10;6.90;;;3.35;;
59824;SDS011;45703;50.898;6.054;2023-04-10T09:23:37;7.85;;;3.80;;
59824;SDS011;45703;50.898;6.054;2023-04-10T09:26:21;7.70;;;3.40;;
59824;SDS011;45703;50.898;6.054;2023-04-10T09:31:29;8.90;;;3.85;;
59824;SDS011;45703;50.898;6.054;2023-04-10T09:36:41;8.13;;;3.50;;
59824;SDS011;45703;50.898;6.054;2023-04-10T09:39:09;7.15;;;3.45;;
59824;SDS011;45703;50.898;6.054;2023-04-10T09:41:52;6.88;;;3.22;;
59824;SDS011;45703;50.898;6.054;2023-04-10T09:44:28;7.57;;;3.70;;
59824;SDS011;45703;50.898;6.054;2023-04-10T09:46:55;7.10;;;3.28;;
59824;SDS011;45703;50.898;6.054;2023-04-10T09:49:21;7.05;;;3.47;;
59824;SDS011;45703;50.898;6.054;2023-04-10T09:51:46;7.03;;;3.28;;
59824;SDS011;45703;50.898;6.054;2023-04-10T09:54:13;7.53;;;3.40;;
59824;SDS011;45703;50.898;6.054;2023-04-10T09:56:39;7.90;;;3.47;;
59824;SDS011;45703;50.898;6.054;2023-04-10T09:59:06;7.32;;;3.50;;
59824;SDS011;45703;50.898;6.054;2023-04-10T10:01:32;7.00;;;3.28;;
59824;SDS011;45703;50.898;6.054;2023-04-10T10:04:01;6.97;;;3.20;;
59824;SDS011;45703;50.898;6.054;2023-04-10T10:06:31;6.90;;;3.13;;
59824;SDS011;45703;50.898;6.054;2023-04-10T10:08:59;6.57;;;3.30;;
59824;SDS011;45703;50.898;6.054;2023-04-10T10:11:27;6.70;;;3.10;;
59824;SDS011;45703;50.898;6.054;2023-04-10T10:13:53;7.55;;;3.83;;
59824;SDS011;45703;50.898;6.054;2023-04-10T10:16:25;7.53;;;3.67;;
59824;SDS011;45703;50.898;6.054;2023-04-10T10:19:18;7.55;;;3.83;;
59824;SDS011;45703;50.898;6.054;2023-04-10T10:21:51;7.15;;;3.45;;
59824;SDS011;45703;50.898;6.054;2023-04-10T10:24:18;7.80;;;3.53;;
59824;SDS011;45703;50.898;6.054;2023-04-10T10:26:45;7.50;;;3.80;;
59824;SDS011;45703;50.898;6.054;2023-04-10T10:29:11;7.60;;;3.80;;
59824;SDS011;45703;50.898;6.054;2023-04-10T10:31:41;8.23;;;3.60;;
59824;SDS011;45703;50.898;6.054;2023-04-10T10:34:07;7.65;;;3.53;;
59824;SDS011;45703;50.898;6.054;2023-04-10T10:36:37;7.15;;;3.65;;
59824;SDS011;45703;50.898;6.054;2023-04-10T10:47:17;7.60;;;3.53;;
59824;SDS011;45703;50.898;6.054;2023-04-10T10:49:50;6.95;;;3.50;;
59824;SDS011;45703;50.898;6.054;2023-04-10T10:52:35;8.40;;;3.78;;
59824;SDS011;45703;50.898;6.054;2023-04-10T10:55:26;7.38;;;3.60;;
59824;SDS011;45703;50.898;6.054;2023-04-10T10:57:46;7.30;;;3.58;;
59824;SDS011;45703;50.898;6.054;2023-04-10T11:00:16;6.93;;;3.17;;
59824;SDS011;45703;50.898;6.054;2023-04-10T11:02:42;7.05;;;3.28;;
59824;SDS011;45703;50.898;6.054;2023-04-10T11:05:08;6.93;;;3.42;;
59824;SDS011;45703;50.898;6.054;2023-04-10T11:08:06;7.18;;;3.22;;
59824;SDS011;45703;50.898;6.054;2023-04-10T11:13:29;6.57;;;3.13;;
59824;SDS011;45703;50.898;6.054;2023-04-10T11:15:56;6.68;;;2.95;;
59824;SDS011;45703;50.898;6.054;2023-04-10T11:23:36;6.95;;;3.08;;
59824;SDS011;45703;50.898;6.054;2023-04-10T11:26:03;6.93;;;3.28;;
59824;SDS011;45703;50.898;6.054;2023-04-10T11:33:40;8.02;;;3.80;;
59824;SDS011;45703;50.898;6.054;2023-04-10T11:36:05;6.70;;;3.22;;
59824;SDS011;45703;50.898;6.054;2023-04-10T11:38:31;7.32;;;3.60;;
59824;SDS011;45703;50.898;6.054;2023-04-10T11:40:59;6.75;;;3.20;;
59824;SDS011;45703;50.898;6.054;2023-04-10T11:43:27;6.78;;;3.08;;
59824;SDS011;45703;50.898;6.054;2023-04-10T11:46:03;7.00;;;3.03;;
59824;SDS011;45703;50.898;6.054;2023-04-10T11:48:31;6.28;;;2.92;;
59824;SDS011;45703;50.898;6.054;2023-04-10T11:50:57;7.30;;;3.28;;
59824;SDS011;45703;50.898;6.054;2023-04-10T11:53:25;6.68;;;2.97;;
59824;SDS011;45703;50.898;6.054;2023-04-10T11:55:51;7.45;;;3.30;;
59824;SDS011;45703;50.898;6.054;2023-04-10T11:58:26;6.40;;;3.10;;
59824;SDS011;45703;50.898;6.054;2023-04-10T12:01:03;6.28;;;2.83;;
59824;SDS011;45703;50.898;6.054;2023-04-10T12:03:36;6.90;;;3.17;;
59824;SDS011;45703;50.898;6.054;2023-04-10T12:06:05;6.47;;;3.10;;
59824;SDS011;45703;50.898;6.054;2023-04-10T12:08:33;7.38;;;3.05;;
59824;SDS011;45703;50.898;6.054;2023-04-10T12:11:01;6.35;;;2.80;;
59824;SDS011;45703;50.898;6.054;2023-04-10T12:13:28;7.22;;;3.10;;
59824;SDS011;45703;50.898;6.054;2023-04-10T12:15:56;6.13;;;2.50;;
59824;SDS011;45703;50.898;6.054;2023-04-10T12:18:24;7.28;;;2.90;;
59824;SDS011;45703;50.898;6.054;2023-04-10T12:20:50;6.93;;;2.92;;
59824;SDS011;45703;50.898;6.054;2023-04-10T12:23:20;6.50;;;2.90;;
59824;SDS011;45703;50.898;6.054;2023-04-10T12:25:46;6.78;;;3.00;;
59824;SDS011;45703;50.898;6.054;2023-04-10T12:28:19;6.70;;;2.80;;
59824;SDS011;45703;50.898;6.054;2023-04-10T12:30:49;6.05;;;2.85;;
59824;SDS011;45703;50.898;6.054;2023-04-10T12:33:21;6.25;;;2.80;;
59824;SDS011;45703;50.898;6.054;2023-04-10T12:35:47;6.53;;;3.08;;
59824;SDS011;45703;50.898;6.054;2023-04-10T12:38:13;7.40;;;2.75;;
59824;SDS011;45703;50.898;6.054;2023-04-10T12:40:56;6.25;;;2.90;;
59824;SDS011;45703;50.898;6.054;2023-04-10T12:46:01;6.45;;;2.92;;
59824;SDS011;45703;50.898;6.054;2023-04-10T12:48:27;5.95;;;2.65;;
59824;SDS011;45703;50.898;6.054;2023-04-10T12:50:52;6.45;;;3.03;;
59824;SDS011;45703;50.898;6.054;2023-04-10T12:53:18;6.75;;;3.08;;
59824;SDS011;45703;50.898;6.054;2023-04-10T12:55:56;8.40;;;3.50;;
59824;SDS011;45703;50.898;6.054;2023-04-10T12:58:27;6.35;;;3.08;;
59824;SDS011;45703;50.898;6.054;2023-04-10T13:00:54;6.60;;;3.35;;
59824;SDS011;45703;50.898;6.054;2023-04-10T13:03:21;6.90;;;3.10;;
59824;SDS011;45703;50.898;6.054;2023-04-10T13:05:46;6.90;;;3.35;;
59824;SDS011;45703;50.898;6.054;2023-04-10T13:08:12;6.80;;;3.33;;
59824;SDS011;45703;50.898;6.054;2023-04-10T13:10:38;6.43;;;3.10;;
59824;SDS011;45703;50.898;6.054;2023-04-10T13:13:04;6.63;;;3.50;;
59824;SDS011;45703;50.898;6.054;2023-04-10T13:15:31;7.70;;;3.15;;
59824;SDS011;45703;50.898;6.054;2023-04-10T13:17:58;6.82;;;2.88;;
59824;SDS011;45703;50.898;6.054;2023-04-10T13:20:24;7.32;;;3.20;;
59824;SDS011;45703;50.898;6.054;2023-04-10T13:22:50;7.03;;;2.83;;
59824;SDS011;45703;50.898;6.054;2023-04-10T13:25:15;6.53;;;2.92;;
59824;SDS011;45703;50.898;6.054;2023-04-10T13:27:41;7.03;;;3.15;;
59824;SDS011;45703;50.898;6.054;2023-04-10T13:30:06;6.78;;;2.97;;
59824;SDS011;45703;50.898;6.054;2023-04-10T13:32:32;6.97;;;2.88;;
59824;SDS011;45703;50.898;6.054;2023-04-10T13:34:57;6.00;;;2.63;;
59824;SDS011;45703;50.898;6.054;2023-04-10T13:37:23;6.53;;;2.92;;
59824;SDS011;45703;50.898;6.054;2023-04-10T13:39:48;6.97;;;3.03;;
59824;SDS011;45703;50.898;6.054;2023-04-10T13:42:13;6.78;;;3.28;;
59824;SDS011;45703;50.898;6.054;2023-04-10T13:44:39;6.70;;;3.15;;
59824;SDS011;45703;50.898;6.054;2023-04-10T13:47:04;6.15;;;2.67;;
59824;SDS011;45703;50.898;6.054;2023-04-10T13:49:30;6.88;;;3.10;;
59824;SDS011;45703;50.898;6.054;2023-04-10T13:51:56;6.05;;;2.63;;
59824;SDS011;45703;50.898;6.054;2023-04-10T13:54:22;6.90;;;3.15;;
59824;SDS011;45703;50.898;6.054;2023-04-10T13:56:47;6.70;;;2.80;;
59824;SDS011;45703;50.898;6.054;2023-04-10T13:59:14;5.85;;;2.47;;
59824;SDS011;45703;50.898;6.054;2023-04-10T14:01:40;6.55;;;2.83;;
59824;SDS011;45703;50.898;6.054;2023-04-10T14:04:05;6.50;;;2.65;;
59824;SDS011;45703;50.898;6.054;2023-04-10T14:06:31;6.75;;;2.95;;
59824;SDS011;45703;50.898;6.054;2023-04-10T14:08:56;5.97;;;2.40;;
59824;SDS011;45703;50.898;6.054;2023-04-10T14:11:22;6.03;;;2.50;;
59824;SDS011;45703;50.898;6.054;2023-04-10T14:13:47;6.13;;;2.35;;
59824;SDS011;45703;50.898;6.054;2023-04-10T14:16:13;4.97;;;1.85;;
59824;SDS011;45703;50.898;6.054;2023-04-10T14:18:39;5.57;;;1.95;;
59824;SDS011;45703;50.898;6.054;2023-04-10T14:21:04;5.75;;;2.20;;
59824;SDS011;45703;50.898;6.054;2023-04-10T14:23:30;5.60;;;2.00;;
59824;SDS011;45703;50.898;6.054;2023-04-10T14:25:55;5.70;;;2.25;;
59824;SDS011;45703;50.898;6.054;2023-04-10T14:28:21;6.20;;;2.50;;
59824;SDS011;45703;50.898;6.054;2023-04-10T14:30:47;6.78;;;2.30;;
59824;SDS011;45703;50.898;6.054;2023-04-10T14:33:14;5.85;;;2.20;;
59824;SDS011;45703;50.898;6.054;2023-04-10T14:35:40;6.55;;;2.30;;
59824;SDS011;45703;50.898;6.054;2023-04-10T14:38:05;6.18;;;2.10;;
59824;SDS011;45703;50.898;6.054;2023-04-10T14:40:31;5.78;;;2.08;;
59824;SDS011;45703;50.898;6.054;2023-04-10T14:42:56;5.65;;;2.30;;
59824;SDS011;45703;50.898;6.054;2023-04-10T14:45:22;6.22;;;2.20;;
59824;SDS011;45703;50.898;6.054;2023-04-10T14:47:47;6.03;;;2.20;;
59824;SDS011;45703;50.898;6.054;2023-04-10T14:50:13;5.78;;;2.38;;
59824;SDS011;45703;50.898;6.054;2023-04-10T14:52:38;6.68;;;2.85;;
59824;SDS011;45703;50.898;6.054;2023-04-10T14:55:04;6.43;;;2.35;;
59824;SDS011;45703;50.898;6.054;2023-04-10T14:57:29;6.07;;;2.63;;
59824;SDS011;45703;50.898;6.054;2023-04-10T14:59:55;6.05;;;2.30;;
59824;SDS011;45703;50.898;6.054;2023-04-10T15:02:21;6.00;;;2.60;;
59824;SDS011;45703;50.898;6.054;2023-04-10T15:04:46;6.28;;;2.53;;
59824;SDS011;45703;50.898;6.054;2023-04-10T15:07:12;6.03;;;2.25;;
59824;SDS011;45703;50.898;6.054;2023-04-10T15:09:38;6.32;;;2.65;;
59824;SDS011;45703;50.898;6.054;2023-04-10T15:12:04;6.20;;;2.28;;
59824;SDS011;45703;50.898;6.054;2023-04-10T15:14:30;6.15;;;2.38;;
59824;SDS011;45703;50.898;6.054;2023-04-10T15:16:55;5.32;;;2.22;;
59824;SDS011;45703;50.898;6.054;2023-04-10T15:19:21;6.20;;;2.53;;
59824;SDS011;45703;50.898;6.054;2023-04-10T15:21:46;6.57;;;2.67;;
59824;SDS011;45703;50.898;6.054;2023-04-10T15:24:11;6.47;;;2.60;;
59824;SDS011;45703;50.898;6.054;2023-04-10T15:26:41;5.82;;;2.40;;
59824;SDS011;45703;50.898;6.054;2023-04-10T15:29:07;6.65;;;2.67;;
59824;SDS011;45703;50.898;6.054;2023-04-10T15:31:32;6.10;;;2.40;;